Time;durP1;ratioP1;P1;durP2;ratioP2;P2;SDS_P1;SDS_P2;PMS_P1;PMS_P2;Temp;Humidity;BMP_temperature;BMP_pressure;BME280_temperature;BME280_humidity;BME280_pressure;Samples;Min_cycle;Max_cycle;Signal;HPM_P1;HPM_P2
2022/11/30 00:00:55;;;;;;;61.30;46.50;;;5.30;1.00;;;;;;6261718;22;20221;-79
2022/11/30 00:03:24;;;;;;;59.65;42.03;;;5.30;1.00;;;;;;6263630;22;20218;-78
2022/11/30 00:06:04;;;;;;;60.08;42.35;;;5.20;1.00;;;;;;6261188;22;20245;-83
2022/11/30 00:08:35;;;;;;;63.30;43.55;;;5.30;1.00;;;;;;6223996;22;20227;-82
2022/11/30 00:11:15;;;;;;;67.15;44.85;;;5.10;1.00;;;;;;6219048;22;20214;-88
2022/11/30 00:13:42;;;;;;;64.90;44.15;;;5.00;1.00;;;;;;6267916;22;20209;-86
2022/11/30 00:16:14;;;;;;;67.03;44.95;;;5.00;1.00;;;;;;6269215;22;20188;-84
2022/11/30 00:18:41;;;;;;;67.95;44.90;;;4.90;1.00;;;;;;6266200;22;20218;-85
2022/11/30 00:21:15;;;;;;;66.95;44.47;;;4.90;1.00;;;;;;6267396;22;20219;-83
2022/11/30 00:23:43;;;;;;;61.30;42.45;;;5.00;1.00;;;;;;6265569;22;20684;-78
2022/11/30 00:26:19;;;;;;;60.85;42.50;;;5.00;1.00;;;;;;6264894;22;20225;-85
2022/11/30 00:28:47;;;;;;;57.58;42.20;;;5.10;1.00;;;;;;6260834;22;20678;-78
2022/11/30 00:31:16;;;;;;;58.05;42.28;;;5.10;1.00;;;;;;6264125;22;20330;-82
2022/11/30 00:33:45;;;;;;;61.13;41.83;;;5.20;1.00;;;;;;6252557;22;20210;-78
2022/11/30 00:36:28;;;;;;;57.35;41.83;;;5.20;1.00;;;;;;6256399;22;20220;-80
2022/11/30 00:39:16;;;;;;;65.72;44.95;;;5.30;1.00;;;;;;6257868;22;20216;-87
2022/11/30 00:41:48;;;;;;;62.70;41.80;;;5.30;1.00;;;;;;6249953;22;20208;-82
2022/11/30 00:44:15;;;;;;;60.90;41.35;;;5.30;1.00;;;;;;6235201;22;20211;-86
2022/11/30 00:46:42;;;;;;;63.67;41.38;;;5.20;1.00;;;;;;6173485;22;20214;-86
2022/11/30 00:49:17;;;;;;;61.90;44.03;;;5.20;1.00;;;;;;6256968;22;20201;-88
2022/11/30 00:51:47;;;;;;;62.33;44.97;;;5.20;1.00;;;;;;6210926;22;20246;-79
2022/11/30 00:54:17;;;;;;;57.90;42.53;;;5.20;1.00;;;;;;6242942;22;20222;-81
2022/11/30 00:56:44;;;;;;;65.15;45.55;;;5.20;1.00;;;;;;6254748;22;20220;-81
2022/11/30 00:59:17;;;;;;;63.67;44.70;;;5.20;1.00;;;;;;6258801;22;20214;-86
2022/11/30 01:01:44;;;;;;;61.35;44.70;;;5.30;1.00;;;;;;6259477;22;20318;-88
2022/11/30 01:04:15;;;;;;;65.53;45.30;;;5.30;1.00;;;;;;6265041;22;20212;-84
2022/11/30 01:06:44;;;;;;;63.67;43.30;;;5.20;1.00;;;;;;6265685;22;20223;-83
2022/11/30 01:09:16;;;;;;;62.60;43.25;;;5.10;1.00;;;;;;6259784;22;20214;-83
2022/11/30 01:11:43;;;;;;;61.58;45.03;;;5.20;1.00;;;;;;6265173;22;20222;-84
2022/11/30 01:14:15;;;;;;;63.20;44.60;;;5.20;1.00;;;;;;6257932;22;20211;-81
2022/11/30 01:16:46;;;;;;;65.97;46.85;;;5.10;1.00;;;;;;6257176;22;20605;-87
2022/11/30 01:19:13;;;;;;;63.65;43.70;;;5.20;1.00;;;;;;6264519;22;21058;-83
2022/11/30 01:21:44;;;;;;;63.20;42.83;;;5.00;1.00;;;;;;6260889;22;20218;-83
2022/11/30 01:26:53;;;;;;;67.22;45.03;;;5.00;1.00;;;;;;6257399;22;20222;-83
2022/11/30 01:29:28;;;;;;;64.18;43.17;;;5.10;1.00;;;;;;6264308;22;20211;-78
2022/11/30 01:31:57;;;;;;;60.70;42.70;;;5.10;1.00;;;;;;6257786;22;20213;-81
2022/11/30 01:34:26;;;;;;;64.88;44.03;;;5.10;1.00;;;;;;6265870;22;20229;-82
2022/11/30 01:36:54;;;;;;;62.70;44.75;;;5.00;1.00;;;;;;6266454;22;20229;-83
2022/11/30 01:39:28;;;;;;;62.75;44.70;;;5.00;1.00;;;;;;6263871;22;20230;-88
2022/11/30 01:41:55;;;;;;;66.15;42.70;;;5.00;1.00;;;;;;6261671;22;20220;-86
2022/11/30 01:44:51;;;;;;;64.10;43.97;;;5.00;1.00;;;;;;6262831;22;21190;-80
2022/11/30 01:47:26;;;;;;;65.45;44.58;;;5.00;1.00;;;;;;6265008;22;20213;-82
2022/11/30 01:49:57;;;;;;;62.53;43.92;;;5.00;1.00;;;;;;6224172;22;20215;-88
2022/11/30 01:52:31;;;;;;;59.90;44.05;;;5.00;1.00;;;;;;6262100;22;20208;-76
2022/11/30 01:55:05;;;;;;;61.65;45.20;;;4.90;1.00;;;;;;6259944;22;20265;-84
2022/11/30 01:57:36;;;;;;;61.95;45.53;;;4.90;1.00;;;;;;6262641;22;20276;-77
2022/11/30 02:00:08;;;;;;;67.10;46.47;;;4.90;1.00;;;;;;6257116;22;20272;-77
2022/11/30 02:02:44;;;;;;;66.63;45.35;;;5.00;1.00;;;;;;6254150;22;20235;-85
2022/11/30 02:05:12;;;;;;;68.65;43.75;;;4.90;1.00;;;;;;6256352;22;20287;-84
2022/11/30 02:07:44;;;;;;;61.85;44.33;;;4.90;1.00;;;;;;6255918;22;20735;-79
2022/11/30 02:10:15;;;;;;;67.65;44.80;;;4.90;1.00;;;;;;6254903;22;20218;-76
2022/11/30 02:12:55;;;;;;;65.82;43.92;;;4.90;1.00;;;;;;6254015;22;20224;-78
2022/11/30 02:15:31;;;;;;;62.53;43.20;;;5.00;1.00;;;;;;6259383;22;20223;-78
2022/11/30 02:18:10;;;;;;;67.15;44.13;;;5.00;1.00;;;;;;6257840;22;20200;-77
2022/11/30 02:20:57;;;;;;;63.13;44.33;;;4.90;1.00;;;;;;6260777;22;20218;-86
2022/11/30 02:23:46;;;;;;;61.90;43.80;;;4.90;1.00;;;;;;6263297;22;20211;-87
2022/11/30 02:26:34;;;;;;;62.85;43.15;;;4.90;1.00;;;;;;6260598;22;20660;-87
2022/11/30 02:29:13;;;;;;;63.10;44.33;;;4.90;1.00;;;;;;6262815;22;20206;-86
2022/11/30 02:31:51;;;;;;;65.97;46.90;;;4.80;1.00;;;;;;6260576;22;21049;-85
2022/11/30 02:34:29;;;;;;;63.92;44.40;;;4.80;1.00;;;;;;6260068;22;20220;-77
2022/11/30 02:36:59;;;;;;;66.85;44.67;;;4.80;1.00;;;;;;6258221;22;20996;-85
2022/11/30 02:39:29;;;;;;;62.17;43.85;;;4.80;1.00;;;;;;6258962;22;20206;-84
2022/11/30 02:41:56;;;;;;;60.17;41.15;;;4.80;1.00;;;;;;6259195;22;20229;-85
2022/11/30 02:44:28;;;;;;;67.30;45.30;;;4.90;1.00;;;;;;6263123;22;20209;-83
2022/11/30 02:47:15;;;;;;;65.88;44.00;;;4.90;1.00;;;;;;6253684;22;20216;-78
2022/11/30 02:49:48;;;;;;;63.33;41.60;;;4.90;1.00;;;;;;6254434;22;20972;-77
2022/11/30 02:52:17;;;;;;;68.47;45.00;;;4.80;1.00;;;;;;6254370;22;20256;-79
2022/11/30 02:54:47;;;;;;;67.93;44.28;;;4.90;1.00;;;;;;6255227;22;20219;-88
2022/11/30 02:57:14;;;;;;;67.43;43.80;;;4.80;1.00;;;;;;6262071;22;20209;-87
2022/11/30 02:59:47;;;;;;;72.63;43.67;;;4.80;1.00;;;;;;6259827;22;20210;-88
2022/11/30 03:02:14;;;;;;;67.82;42.85;;;4.80;1.00;;;;;;6258171;22;20236;-81
2022/11/30 03:04:49;;;;;;;67.78;46.42;;;4.80;1.00;;;;;;6255835;22;20199;-85
2022/11/30 03:07:15;;;;;;;65.80;44.55;;;4.90;1.00;;;;;;6258199;22;20237;-88
2022/11/30 03:09:45;;;;;;;68.63;45.83;;;4.90;1.00;;;;;;6258427;22;20230;-88
2022/11/30 03:12:12;;;;;;;70.15;47.25;;;4.90;1.00;;;;;;6259818;22;20743;-87
2022/11/30 03:14:49;;;;;;;63.08;46.55;;;4.90;1.00;;;;;;6257942;22;20209;-86
2022/11/30 03:17:17;;;;;;;67.43;45.35;;;4.90;1.00;;;;;;6259533;22;20207;-86
2022/11/30 03:19:47;;;;;;;63.85;44.20;;;4.90;1.00;;;;;;6260059;22;20200;-86
2022/11/30 03:22:14;;;;;;;62.75;43.83;;;4.90;1.00;;;;;;6257724;22;20305;-88
2022/11/30 03:24:51;;;;;;;62.53;41.70;;;4.90;1.00;;;;;;6259031;22;20214;-87
2022/11/30 03:27:18;;;;;;;65.90;44.83;;;4.90;1.00;;;;;;6255959;22;20215;-88
2022/11/30 03:29:45;;;;;;;66.68;46.67;;;4.80;1.00;;;;;;6259198;22;20240;-87
2022/11/30 03:32:12;;;;;;;80.75;48.65;;;4.80;1.00;;;;;;6261764;22;21050;-87
2022/11/30 03:34:44;;;;;;;68.03;46.00;;;4.80;1.00;;;;;;6260763;22;21072;-87
2022/11/30 03:37:11;;;;;;;64.82;43.58;;;4.70;1.00;;;;;;6259143;22;20697;-82
2022/11/30 03:39:38;;;;;;;66.93;44.40;;;4.70;1.00;;;;;;6258942;22;20923;-87
2022/11/30 03:42:07;;;;;;;69.43;45.05;;;4.70;1.00;;;;;;6259776;22;20215;-82
2022/11/30 03:44:36;;;;;;;67.22;45.55;;;4.70;1.00;;;;;;6259838;22;20210;-86
2022/11/30 03:47:03;;;;;;;66.65;44.80;;;4.80;1.00;;;;;;6259501;22;20210;-87
2022/11/30 03:49:36;;;;;;;67.68;45.90;;;4.70;1.00;;;;;;6257953;22;20222;-86
2022/11/30 03:52:05;;;;;;;64.90;45.78;;;4.70;1.00;;;;;;6256662;22;20279;-82
2022/11/30 03:54:36;;;;;;;66.75;45.72;;;4.80;1.00;;;;;;6259930;22;20237;-85
2022/11/30 03:57:03;;;;;;;64.75;45.53;;;4.70;1.00;;;;;;6255677;22;20962;-86
2022/11/30 03:59:29;;;;;;;61.25;44.55;;;4.70;1.00;;;;;;6256367;22;20220;-87
2022/11/30 04:01:56;;;;;;;68.82;44.60;;;4.70;1.00;;;;;;6254907;22;20281;-76
2022/11/30 04:04:29;;;;;;;69.30;44.20;;;4.70;1.00;;;;;;6254142;22;20259;-78
2022/11/30 04:07:01;;;;;;;63.67;47.28;;;4.70;1.00;;;;;;6261165;22;20205;-77
2022/11/30 04:09:34;;;;;;;64.15;46.67;;;4.70;1.00;;;;;;6262667;22;20230;-79
2022/11/30 04:12:04;;;;;;;65.47;44.33;;;4.60;1.00;;;;;;6260703;22;20934;-78
2022/11/30 04:14:31;;;;;;;71.72;48.38;;;4.60;1.00;;;;;;6260662;22;20233;-79
2022/11/30 04:17:03;;;;;;;64.10;44.85;;;4.60;1.00;;;;;;6219527;22;20226;-85
2022/11/30 04:19:33;;;;;;;66.53;45.15;;;4.60;1.00;;;;;;6228868;22;20201;-85
2022/11/30 04:22:03;;;;;;;71.00;46.50;;;4.50;1.00;;;;;;6246150;22;20194;-86
2022/11/30 04:24:32;;;;;;;66.50;44.55;;;4.50;1.00;;;;;;6263919;22;20243;-82
2022/11/30 04:27:00;;;;;;;66.00;46.72;;;4.60;1.00;;;;;;6219711;22;20211;-79
2022/11/30 04:29:33;;;;;;;72.60;46.70;;;4.60;1.00;;;;;;6263926;22;20269;-78
2022/11/30 04:32:01;;;;;;;67.22;46.13;;;4.60;1.00;;;;;;6253387;22;20216;-77
2022/11/30 04:34:32;;;;;;;72.57;46.38;;;4.50;1.00;;;;;;6243539;22;20215;-76
2022/11/30 04:37:03;;;;;;;68.40;44.13;;;4.50;1.00;;;;;;6213891;22;20254;-83
2022/11/30 04:39:35;;;;;;;72.15;47.10;;;4.40;1.00;;;;;;6230688;22;20232;-81
2022/11/30 04:42:11;;;;;;;77.95;48.92;;;4.50;1.00;;;;;;6258788;22;20208;-76
2022/11/30 04:44:43;;;;;;;66.38;43.75;;;4.50;1.00;;;;;;6261652;22;20205;-79
2022/11/30 04:47:11;;;;;;;67.80;47.38;;;4.40;1.00;;;;;;6261815;22;20210;-81
2022/11/30 04:49:41;;;;;;;73.07;46.78;;;4.40;1.00;;;;;;6262520;22;20202;-78
2022/11/30 04:52:12;;;;;;;82.05;51.70;;;4.30;1.00;;;;;;6260828;22;20210;-78
2022/11/30 04:54:43;;;;;;;78.53;47.65;;;4.30;1.00;;;;;;6260904;22;20238;-77
2022/11/30 04:57:11;;;;;;;64.05;46.47;;;4.30;1.00;;;;;;6262791;22;20298;-78
2022/11/30 04:59:41;;;;;;;75.68;48.65;;;4.30;1.00;;;;;;6261524;22;20399;-79
2022/11/30 05:02:11;;;;;;;69.70;45.90;;;4.30;1.00;;;;;;6239819;22;20199;-77
2022/11/30 05:04:41;;;;;;;67.35;44.63;;;4.40;1.00;;;;;;6239308;22;20225;-78
2022/11/30 05:07:11;;;;;;;71.93;48.10;;;4.50;1.00;;;;;;6259704;22;20212;-77
2022/11/30 05:09:43;;;;;;;59.92;42.63;;;4.50;1.00;;;;;;6261376;22;20205;-77
2022/11/30 05:12:13;;;;;;;65.97;46.42;;;4.60;1.00;;;;;;6261597;22;20238;-75
2022/11/30 05:14:41;;;;;;;66.85;45.10;;;4.60;1.00;;;;;;6260466;22;20220;-79
2022/11/30 05:17:10;;;;;;;77.35;49.80;;;4.60;1.00;;;;;;6261484;22;20417;-78
2022/11/30 05:19:42;;;;;;;71.40;48.08;;;4.60;1.00;;;;;;6258245;22;20197;-80
2022/11/30 05:22:13;;;;;;;70.60;46.58;;;4.60;1.00;;;;;;6260807;22;20210;-76
2022/11/30 05:24:51;;;;;;;66.18;44.92;;;4.70;1.00;;;;;;6259298;22;20211;-78
2022/11/30 05:27:22;;;;;;;72.90;45.65;;;4.70;1.00;;;;;;6263152;22;20225;-80
2022/11/30 05:29:52;;;;;;;67.47;46.20;;;4.60;1.00;;;;;;6264047;22;20327;-77
2022/11/30 05:32:32;;;;;;;63.58;44.67;;;4.60;1.00;;;;;;6263972;22;20195;-79
2022/11/30 05:35:02;;;;;;;66.80;46.70;;;4.60;1.00;;;;;;6259734;22;20218;-82
2022/11/30 05:37:33;;;;;;;70.97;50.97;;;4.60;1.00;;;;;;6260291;22;20212;-81
2022/11/30 05:40:03;;;;;;;68.60;46.40;;;4.60;1.00;;;;;;6260903;22;20204;-77
2022/11/30 05:42:31;;;;;;;70.97;48.58;;;4.70;1.00;;;;;;6261402;22;20199;-79
2022/11/30 05:45:06;;;;;;;73.13;47.17;;;4.60;1.00;;;;;;6261224;22;20233;-78
2022/11/30 05:47:34;;;;;;;64.38;46.35;;;4.60;1.00;;;;;;6261685;22;20286;-76
2022/11/30 05:50:01;;;;;;;67.63;47.22;;;4.60;1.00;;;;;;6262908;22;20203;-77
2022/11/30 05:52:31;;;;;;;70.30;48.78;;;4.60;1.00;;;;;;6258394;22;20253;-80
2022/11/30 05:55:03;;;;;;;74.45;47.72;;;4.60;1.00;;;;;;6259449;22;20239;-78
2022/11/30 05:57:31;;;;;;;63.28;45.63;;;4.50;1.00;;;;;;6261031;22;20238;-78
2022/11/30 06:00:01;;;;;;;67.72;45.47;;;4.50;1.00;;;;;;6262524;22;20204;-81
2022/11/30 06:02:33;;;;;;;67.65;46.75;;;4.40;1.00;;;;;;6263610;22;20214;-81
2022/11/30 06:05:03;;;;;;;67.10;45.15;;;4.60;1.00;;;;;;6262966;22;20203;-81
2022/11/30 06:07:32;;;;;;;74.18;45.60;;;4.60;1.00;;;;;;6265922;22;20303;-83
2022/11/30 06:10:04;;;;;;;69.22;47.15;;;4.60;1.00;;;;;;6264867;22;20251;-83
2022/11/30 06:12:32;;;;;;;70.93;46.67;;;4.60;1.00;;;;;;6269617;22;20237;-86
2022/11/30 06:15:02;;;;;;;64.60;47.53;;;4.60;1.00;;;;;;6265576;22;20215;-86
2022/11/30 06:17:32;;;;;;;68.97;45.20;;;4.60;1.00;;;;;;6265540;22;20211;-85
2022/11/30 06:20:03;;;;;;;71.90;45.80;;;4.60;1.00;;;;;;6264880;22;20202;-83
2022/11/30 06:22:32;;;;;;;67.35;46.95;;;4.60;1.00;;;;;;6266507;22;20206;-84
2022/11/30 06:25:05;;;;;;;62.80;44.50;;;4.70;1.00;;;;;;6265876;22;20223;-86
2022/11/30 06:27:32;;;;;;;67.20;44.80;;;4.80;1.00;;;;;;6266292;22;21108;-82
2022/11/30 06:30:01;;;;;;;70.35;45.25;;;4.70;1.00;;;;;;6263698;22;20212;-84
2022/11/30 06:32:31;;;;;;;74.03;48.25;;;4.70;1.00;;;;;;6242885;22;20209;-87
2022/11/30 06:35:12;;;;;;;66.72;46.63;;;4.80;1.00;;;;;;6246749;22;20229;-86
2022/11/30 06:37:43;;;;;;;64.63;44.30;;;4.90;1.00;;;;;;6265150;22;20209;-86
2022/11/30 06:40:22;;;;;;;71.85;53.17;;;4.90;1.00;;;;;;6267130;22;20227;-84
2022/11/30 06:42:52;;;;;;;62.78;43.75;;;4.90;1.00;;;;;;6225467;22;20215;-86
2022/11/30 06:45:22;;;;;;;66.93;44.50;;;4.90;1.00;;;;;;6265815;22;20225;-78
2022/11/30 06:48:00;;;;;;;67.18;45.80;;;5.00;1.00;;;;;;6261445;22;20203;-77
2022/11/30 06:50:33;;;;;;;64.97;44.08;;;5.00;1.00;;;;;;6262208;22;20238;-80
2022/11/30 06:53:01;;;;;;;65.18;44.05;;;5.00;1.00;;;;;;6221004;22;20226;-79
2022/11/30 06:55:43;;;;;;;62.53;44.22;;;4.90;1.00;;;;;;6263885;22;20211;-79
2022/11/30 06:58:11;;;;;;;66.13;44.08;;;4.90;1.00;;;;;;6241140;22;20227;-78
2022/11/30 07:00:54;;;;;;;69.28;43.60;;;5.00;1.00;;;;;;6240843;22;20218;-83
2022/11/30 07:03:24;;;;;;;67.82;44.92;;;5.00;1.00;;;;;;6263767;22;20250;-81
2022/11/30 07:05:53;;;;;;;62.05;43.63;;;5.00;1.00;;;;;;6262592;22;20203;-83
2022/11/30 07:08:23;;;;;;;66.25;43.15;;;5.00;1.00;;;;;;6265179;22;20214;-83
2022/11/30 07:10:52;;;;;;;62.55;41.70;;;5.00;1.00;;;;;;6263497;22;20205;-82
2022/11/30 07:13:22;;;;;;;72.95;44.55;;;5.00;1.00;;;;;;6263345;22;20210;-81
2022/11/30 07:15:52;;;;;;;74.18;46.33;;;5.00;1.00;;;;;;6262272;22;20226;-83
2022/11/30 07:18:40;;;;;;;66.28;43.95;;;5.00;1.00;;;;;;6265023;22;20214;-83
2022/11/30 07:21:42;;;;;;;63.15;43.38;;;5.00;1.00;;;;;;6262780;22;20227;-80
2022/11/30 07:27:04;;;;;;;66.03;45.97;;;5.00;1.00;;;;;;6248496;22;20227;-81
2022/11/30 07:29:34;;;;;;;65.25;44.00;;;5.00;1.00;;;;;;6264116;22;20222;-81
2022/11/30 07:32:04;;;;;;;69.57;44.22;;;5.00;1.00;;;;;;6262192;22;20206;-83
2022/11/30 07:34:34;;;;;;;65.93;44.33;;;4.90;1.00;;;;;;6263855;22;20227;-83
2022/11/30 07:37:13;;;;;;;62.55;43.08;;;4.90;1.00;;;;;;6220787;22;20219;-82
2022/11/30 07:39:51;;;;;;;;;;;;;;;;;;;;;
2022/11/30 07:43:03;;;;;;;;;;;;;;;;;;;;;
2022/11/30 07:46:13;;;;;;;;;;;;;;;;;;;;;
2022/11/30 07:48:50;;;;;;;65.53;42.92;;;4.90;1.00;;;;;;6060508;23;51914;-78
2022/11/30 07:51:31;;;;;;;66.03;46.22;;;5.00;1.00;;;;;;6247911;22;20225;-80
2022/11/30 07:54:04;;;;;;;66.30;41.67;;;5.00;1.00;;;;;;6246938;22;20233;-78
2022/11/30 07:56:33;;;;;;;66.15;44.45;;;5.00;1.00;;;;;;6262447;22;20212;-79
2022/11/30 07:59:03;;;;;;;64.30;47.00;;;5.00;1.00;;;;;;6242807;22;20220;-83
2022/11/30 08:01:36;;;;;;;58.45;42.30;;;5.10;1.00;;;;;;6226657;22;20238;-81
2022/11/30 08:04:12;;;;;;;61.72;44.45;;;5.10;1.00;;;;;;6221860;22;20942;-82
2022/11/30 08:06:52;;;;;;;;;;;;;;;;;;;;;
2022/11/30 08:09:24;;;;;;;67.18;44.88;;;5.10;1.00;;;;;;6251354;22;40925;-81
2022/11/30 08:11:54;;;;;;;69.40;44.50;;;5.00;1.00;;;;;;6261176;22;20250;-80
2022/11/30 08:14:22;;;;;;;65.38;43.42;;;5.00;1.00;;;;;;6262029;22;20297;-82
2022/11/30 08:16:50;;;;;;;63.72;42.90;;;5.00;1.00;;;;;;6256443;22;20647;-81
2022/11/30 08:19:21;;;;;;;65.25;46.88;;;5.20;1.00;;;;;;6257826;22;20192;-83
2022/11/30 08:21:49;;;;;;;65.82;43.42;;;5.20;1.00;;;;;;6257599;22;20219;-81
2022/11/30 08:24:21;;;;;;;64.28;44.55;;;5.20;1.00;;;;;;6257934;22;20250;-81
2022/11/30 08:26:52;;;;;;;67.43;43.83;;;5.20;1.00;;;;;;6257691;22;20207;-81
2022/11/30 08:29:22;;;;;;;59.67;44.72;;;5.20;1.00;;;;;;6258773;22;20257;-81
2022/11/30 08:32:02;;;;;;;67.13;44.65;;;5.10;1.00;;;;;;6257343;22;20214;-84
2022/11/30 08:34:31;;;;;;;68.68;45.50;;;5.10;1.00;;;;;;6259948;22;20301;-82
2022/11/30 08:37:04;;;;;;;62.67;44.58;;;5.10;1.00;;;;;;6246914;22;20215;-83
2022/11/30 08:39:34;;;;;;;67.00;43.83;;;5.20;1.00;;;;;;6258541;22;20266;-78
2022/11/30 08:42:02;;;;;;;66.97;44.58;;;5.30;1.00;;;;;;6257003;22;20236;-82
2022/11/30 08:44:29;;;;;;;61.63;43.70;;;5.40;1.00;;;;;;6218398;22;20224;-80
2022/11/30 08:47:02;;;;;;;65.53;43.25;;;5.40;1.00;;;;;;6254689;22;20222;-81
2022/11/30 08:49:29;;;;;;;63.83;45.03;;;5.30;1.00;;;;;;6258906;22;20301;-81
2022/11/30 08:52:01;;;;;;;67.53;42.05;;;5.30;1.00;;;;;;6256477;22;21429;-79
2022/11/30 08:54:29;;;;;;;64.28;42.28;;;5.50;1.00;;;;;;6257965;22;20212;-82
2022/11/30 08:57:01;;;;;;;63.80;44.70;;;5.50;1.00;;;;;;6257333;22;20230;-83
2022/11/30 08:59:31;;;;;;;60.75;40.25;;;5.40;1.00;;;;;;6260104;22;20220;-78
2022/11/30 09:02:06;;;;;;;63.22;42.30;;;5.40;1.00;;;;;;6259906;22;20215;-81
2022/11/30 09:04:32;;;;;;;62.28;42.40;;;5.40;1.00;;;;;;6259934;22;20218;-82
2022/11/30 09:07:03;;;;;;;68.20;42.38;;;5.40;1.00;;;;;;6260193;22;20213;-81
2022/11/30 09:09:31;;;;;;;58.72;42.60;;;5.40;1.00;;;;;;6262240;22;20343;-82
2022/11/30 09:12:07;;;;;;;70.38;43.42;;;5.50;1.00;;;;;;6258067;22;20212;-81
2022/11/30 09:14:35;;;;;;;61.95;43.13;;;5.50;1.00;;;;;;6257721;22;20637;-79
2022/11/30 09:17:02;;;;;;;63.63;42.22;;;5.50;1.00;;;;;;6181532;23;20224;-81
2022/11/30 09:19:30;;;;;;;59.42;41.25;;;5.50;1.00;;;;;;6248946;22;20691;-79
2022/11/30 09:22:06;;;;;;;67.88;43.22;;;5.60;1.00;;;;;;6258973;22;20209;-77
2022/11/30 09:24:33;;;;;;;62.75;43.33;;;5.80;1.00;;;;;;6258522;22;20234;-81
2022/11/30 09:27:02;;;;;;;60.30;42.75;;;5.80;1.00;;;;;;6259294;22;20215;-81
2022/11/30 09:29:30;;;;;;;69.88;43.30;;;5.70;1.00;;;;;;6261229;22;20264;-77
2022/11/30 09:32:08;;;;;;;60.33;41.15;;;5.80;1.00;;;;;;6233351;22;20215;-83
2022/11/30 09:34:42;;;;;;;60.85;43.20;;;5.90;1.00;;;;;;6261360;22;20200;-80
2022/11/30 09:37:11;;;;;;;71.65;43.95;;;5.90;1.00;;;;;;6258931;22;20215;-81
2022/11/30 09:39:42;;;;;;;64.70;43.03;;;6.00;1.00;;;;;;6258095;22;20199;-79
2022/11/30 09:42:43;;;;;;;64.78;40.70;;;6.10;1.00;;;;;;6259393;22;20688;-79
2022/11/30 09:45:23;;;;;;;56.08;40.65;;;6.30;1.00;;;;;;6247712;22;20249;-79
2022/11/30 09:48:08;;;;;;;65.20;44.72;;;6.20;1.00;;;;;;6254693;22;20291;-77
2022/11/30 09:50:43;;;;;;;60.35;41.17;;;6.20;1.00;;;;;;6260366;22;20215;-81
2022/11/30 09:53:22;;;;;;;61.35;41.97;;;6.20;1.00;;;;;;6259726;22;20210;-80
2022/11/30 09:55:50;;;;;;;63.63;45.72;;;6.20;1.00;;;;;;6261724;22;20297;-81
2022/11/30 09:58:27;;;;;;;67.75;45.88;;;6.10;1.00;;;;;;6260302;22;20273;-80
2022/11/30 10:00:54;;;;;;;66.18;41.75;;;6.20;1.00;;;;;;6259168;22;21043;-81
2022/11/30 10:03:23;;;;;;;65.72;41.50;;;6.30;1.00;;;;;;6259418;22;20199;-77
2022/11/30 10:06:04;;;;;;;63.33;45.30;;;6.40;1.00;;;;;;6260315;22;20214;-82
2022/11/30 10:09:01;;;;;;;58.33;43.53;;;6.40;1.00;;;;;;6261435;22;20226;-81
2022/11/30 10:11:48;;;;;;;58.72;41.42;;;6.50;1.00;;;;;;6258945;22;20215;-82
2022/11/30 10:14:50;;;;;;;65.95;47.50;;;6.50;1.00;;;;;;6259958;22;20215;-81
2022/11/30 10:17:32;;;;;;;59.67;42.08;;;6.50;1.00;;;;;;6250502;22;20237;-82
2022/11/30 10:20:24;;;;;;;59.25;43.08;;;6.40;1.00;;;;;;6260922;22;20204;-82
2022/11/30 10:23:09;;;;;;;58.70;39.97;;;6.40;1.00;;;;;;6251909;22;20215;-82
2022/11/30 10:25:50;;;;;;;60.28;42.25;;;6.50;1.00;;;;;;6259557;22;21241;-79
2022/11/30 10:28:33;;;;;;;57.95;41.95;;;6.70;1.00;;;;;;6256341;22;20270;-81
2022/11/30 10:31:04;;;;;;;64.30;42.45;;;6.70;1.00;;;;;;6259300;22;20231;-82
2022/11/30 10:33:40;;;;;;;60.47;41.63;;;6.80;1.00;;;;;;6259873;22;20212;-78
2022/11/30 10:36:13;;;;;;;58.67;42.47;;;6.90;1.00;;;;;;6258012;22;20211;-81
2022/11/30 10:38:53;;;;;;;61.13;42.75;;;7.00;1.00;;;;;;6257345;22;20286;-78
2022/11/30 10:41:27;;;;;;;57.05;41.33;;;7.00;1.00;;;;;;6257120;22;20243;-80
2022/11/30 10:44:02;;;;;;;60.55;41.90;;;6.90;1.00;;;;;;6257065;22;20252;-82
2022/11/30 10:46:42;;;;;;;57.15;40.90;;;7.00;1.00;;;;;;6258863;22;20222;-81
2022/11/30 10:49:15;;;;;;;61.40;43.42;;;7.00;1.00;;;;;;6258120;22;20209;-77
2022/11/30 10:51:47;;;;;;;60.80;42.45;;;7.20;1.00;;;;;;6258868;22;20219;-80
2022/11/30 10:54:21;;;;;;;60.80;45.17;;;7.10;1.00;;;;;;6258691;22;20214;-82
2022/11/30 10:56:50;;;;;;;58.30;42.28;;;7.10;1.00;;;;;;6260566;22;20204;-76
2022/11/30 10:59:34;;;;;;;57.47;41.53;;;7.10;1.00;;;;;;6261098;22;20198;-79
2022/11/30 11:02:41;;;;;;;53.20;41.20;;;7.30;1.00;;;;;;6258154;22;20303;-80
2022/11/30 11:05:24;;;;;;;63.85;42.95;;;7.20;1.00;;;;;;6258824;22;20219;-78
2022/11/30 11:08:05;;;;;;;58.67;41.83;;;7.40;1.00;;;;;;6259329;22;20214;-80
2022/11/30 11:10:43;;;;;;;60.50;40.92;;;7.40;1.00;;;;;;6235321;22;20277;-81
2022/11/30 11:13:24;;;;;;;61.15;43.15;;;7.40;1.00;;;;;;6249628;22;20217;-80
2022/11/30 11:16:31;;;;;;;57.03;41.47;;;7.40;1.00;;;;;;6247081;22;20238;-84
2022/11/30 11:19:03;;;;;;;55.47;42.55;;;7.20;1.00;;;;;;6250870;22;20243;-82
2022/11/30 11:21:30;;;;;;;62.97;42.70;;;7.30;1.00;;;;;;6263263;22;20211;-85
2022/11/30 11:24:10;;;;;;;55.25;39.88;;;7.30;1.00;;;;;;6242737;22;20248;-86
2022/11/30 11:26:54;;;;;;;61.38;42.72;;;7.30;1.00;;;;;;6166665;23;20863;-80
2022/11/30 11:29:36;;;;;;;58.20;40.33;;;7.20;1.00;;;;;;6168252;23;20224;-84
2022/11/30 11:35:04;;;;;;;65.05;43.03;;;7.20;1.00;;;;;;6193889;22;20211;-85
2022/11/30 11:37:40;;;;;;;61.90;42.10;;;7.20;1.00;;;;;;6260290;22;20728;-84
2022/11/30 11:40:15;;;;;;;60.28;41.80;;;7.40;1.00;;;;;;6220580;22;20207;-85
2022/11/30 11:42:54;;;;;;;66.95;42.15;;;7.30;1.00;;;;;;6263662;22;20303;-86
2022/11/30 11:45:24;;;;;;;64.63;44.08;;;7.40;1.00;;;;;;6226327;22;20210;-85
2022/11/30 11:48:24;;;;;;;53.67;40.63;;;7.50;1.00;;;;;;6257318;22;20213;-84
2022/11/30 11:51:00;;;;;;;60.45;42.22;;;7.50;1.00;;;;;;6216564;22;20213;-85
2022/11/30 11:53:55;;;;;;;61.92;43.20;;;7.70;1.00;;;;;;6254618;22;20348;-84
2022/11/30 11:56:33;;;;;;;58.38;41.05;;;7.60;1.00;;;;;;6263462;22;20209;-84
2022/11/30 11:59:21;;;;;;;63.20;42.90;;;7.50;1.00;;;;;;6260141;22;20266;-84
2022/11/30 12:01:59;;;;;;;64.93;42.60;;;7.40;1.00;;;;;;6262745;22;20282;-84
2022/11/30 12:04:58;;;;;;;65.13;42.42;;;7.40;1.00;;;;;;6261503;22;20903;-85
2022/11/30 12:07:35;;;;;;;61.17;42.88;;;7.30;1.00;;;;;;6255293;22;20217;-81
2022/11/30 12:10:24;;;;;;;61.15;44.88;;;7.20;1.00;;;;;;6255994;22;20218;-78
2022/11/30 12:12:54;;;;;;;63.65;45.63;;;7.10;1.00;;;;;;6234728;22;20209;-83
2022/11/30 12:15:32;;;;;;;68.25;45.70;;;7.10;1.00;;;;;;6254702;22;20210;-79
2022/11/30 12:18:12;;;;;;;67.45;46.00;;;7.20;1.00;;;;;;6259450;22;20231;-77
2022/11/30 12:20:53;;;;;;;62.88;44.20;;;7.10;1.00;;;;;;6255538;22;20212;-78
2022/11/30 12:23:54;;;;;;;65.95;45.38;;;7.10;1.00;;;;;;6261058;22;20684;-81
2022/11/30 12:26:34;;;;;;;73.47;50.88;;;7.20;1.00;;;;;;6232621;22;20986;-77
2022/11/30 12:29:34;;;;;;;71.53;47.45;;;7.20;1.00;;;;;;6245903;22;20282;-80
2022/11/30 12:32:23;;;;;;;63.42;45.25;;;7.20;1.00;;;;;;6258509;22;20208;-78
2022/11/30 12:35:25;;;;;;;66.78;46.75;;;7.30;1.00;;;;;;6258303;22;20197;-81
2022/11/30 12:38:03;;;;;;;65.68;48.58;;;7.20;1.00;;;;;;6259578;22;20207;-81
2022/11/30 12:40:41;;;;;;;62.10;46.15;;;7.20;1.00;;;;;;6257313;22;20203;-82
2022/11/30 12:43:32;;;;;;;72.38;48.35;;;7.20;1.00;;;;;;6260165;22;20189;-83
2022/11/30 12:46:11;;;;;;;64.30;45.65;;;7.10;1.00;;;;;;6256752;22;20217;-78
2022/11/30 12:48:55;;;;;;;77.20;51.17;;;7.10;1.00;;;;;;6255096;22;20924;-79
2022/11/30 12:51:36;;;;;;;71.80;49.22;;;7.10;1.00;;;;;;6260353;22;20216;-82
2022/11/30 12:54:14;;;;;;;67.47;47.47;;;7.20;1.00;;;;;;6258130;22;20216;-85
2022/11/30 12:56:46;;;;;;;65.43;45.95;;;7.00;1.00;;;;;;6260313;22;20277;-81
2022/11/30 12:59:31;;;;;;;68.35;46.53;;;6.90;1.00;;;;;;6259449;22;20296;-82
2022/11/30 13:02:18;;;;;;;72.50;44.53;;;6.90;1.00;;;;;;6259189;22;20214;-82
2022/11/30 13:04:55;;;;;;;69.00;46.67;;;6.90;1.00;;;;;;6256095;22;20695;-81
2022/11/30 13:07:32;;;;;;;82.57;49.85;;;6.80;1.00;;;;;;6259069;22;20269;-82
2022/11/30 13:10:12;;;;;;;68.22;45.58;;;6.70;1.00;;;;;;6257608;22;20218;-82
2022/11/30 13:12:45;;;;;;;73.18;46.63;;;6.50;1.00;;;;;;6241721;22;20215;-79
2022/11/30 13:15:19;;;;;;;67.50;44.75;;;6.50;1.00;;;;;;6232124;22;20219;-79
2022/11/30 13:17:52;;;;;;;71.63;45.95;;;6.50;1.00;;;;;;6255768;22;20684;-83
2022/11/30 13:20:37;;;;;;;;;;;;;;;;;;;;;
2022/11/30 13:23:15;;;;;;;75.25;49.22;;;6.00;1.00;;;;;;6252543;22;52053;-81
2022/11/30 13:25:55;;;;;;;76.00;47.22;;;6.00;1.00;;;;;;6256231;22;20929;-81
2022/11/30 13:28:32;;;;;;;70.88;47.42;;;6.00;1.00;;;;;;6256869;22;20219;-81
2022/11/30 13:31:14;;;;;;;77.55;49.13;;;5.80;1.00;;;;;;6259702;22;21032;-80
2022/11/30 13:33:57;;;;;;;77.18;47.55;;;5.70;1.00;;;;;;6254182;22;20298;-78
2022/11/30 13:36:37;;;;;;;73.70;45.13;;;5.50;1.00;;;;;;6255134;22;20219;-79
2022/11/30 13:39:31;;;;;;;71.60;45.13;;;5.50;1.00;;;;;;6256180;22;20210;-80